^^

Nearby METAR Reports

 

EGNV - Tees-Side, United Kingdom
Distance from station: SW 7mi, 11km
Updated: 10/08/2022 17:50
Clear
Clear
 Wind from SW
Wind: SW 7 mph , 11 km/h
Temperature: 28°C
Dew Point: 11°C
Humidity: 35%
Barometer: 1023 hPa
Summary: Clear
Visibility: greater than 7 miles , 10 km
2022/08/10 16:50 EGNV 101650Z 22006KT 190V280 CAVOK 28/11 Q1023
EGXE - Leeming Raf, United Kingdom
Distance from station: SSW 23mi, 37km
Updated: 10/08/2022 18:20
Clear
Clear
 Wind from W
Wind: W 8 mph , 13 km/h
Temperature: 29°C
Dew Point: 12°C
Humidity: 35%
Barometer: 1023 hPa
Clouds: Clear
Visibility: 6 miles , 10 km
2022/08/10 17:20 EGXE 101720Z AUTO 26007KT 9999 NCD 29/12 Q1023
 
EGXZ - Topcliffe Raf, United Kingdom
Distance from station: S 27mi, 43km
Updated: 10/08/2022 17:50
Clear
Clear
 Wind from SSE
Wind: SSE 6 mph , 9 km/h
Temperature: 29°C
Dew Point: 11°C
Humidity: 33%
Barometer: 1023 hPa
Clouds: Clear
2022/08/10 16:50 EGXZ 101650Z AUTO 16005KT //// // NCD 29/11 Q1023
EGNT - Newcastle, United Kingdom
Distance from station: NNW 34mi, 54km
Updated: 10/08/2022 18:20
Clear
Clear
 Wind from WNW
Wind: WNW 10 mph , 17 km/h
Temperature: 27°C
Heat Index: 27°C
Dew Point: 13°C
Humidity: 42%
Barometer: 1023 hPa
Summary: Clear
Visibility: greater than 7 miles , 10 km
2022/08/10 17:20 EGNT 101720Z 29009KT CAVOK 27/13 Q1023
 
EGXU - Linton-On-Ouse R, United Kingdom
Distance from station: S 37mi, 60km
Updated: 04/07/2022 11:50
NOT Current
Overcast
Overcast
 Wind from W
Wind: W 14 mph , 22 km/h
Temperature: 17°C
Dew Point: 9°C
Humidity: 59%
Barometer: 1020 hPa
Clouds: Overcast
Visibility: 6 miles , 10 km
Cloud details: Overcast 975 m
2022/07/04 10:50 EGXU 041050Z 28012KT 9999 OVC032 17/09 Q1020 RMK BLU
EGNM - Leeds And Bradfo, United Kingdom
Distance from station: SSW 52mi, 83km
Updated: 10/08/2022 18:20
Clear
Clear
 Wind from NW
Wind: NW 8 mph , 13 km/h
Temperature: 27°C
Heat Index: 27°C
Dew Point: 14°C
Humidity: 45%
Barometer: 1024 hPa
Summary: Clear
Visibility: greater than 7 miles , 10 km
2022/08/10 17:20 EGNM 101720Z 31007KT 270V340 CAVOK 27/14 Q1024
 
EGOM - Spadeadam, United Kingdom
Distance from station: WNW 58mi, 94km
Updated: 10/08/2022 18:20
Clear
Clear
 Wind from W
Wind: W 9 mph , 15 km/h
Temperature: 22°C
Dew Point: 10°C
Humidity: 47%
Barometer: 1024 hPa
Clouds: Clear
Visibility: 6 miles , 10 km
2022/08/10 17:20 EGOM 101720Z AUTO 26008KT 9999 NCD 22/10 Q1024
EGCN - Doncaster Sheffi, United Kingdom
Distance from station: S 77mi, 124km
Updated: 10/08/2022 18:20
Clear
Clear
 Wind from SE
Wind: SE 7 mph , 11 km/h
Temperature: 29°C
Dew Point: 9°C
Humidity: 29%
Barometer: 1024 hPa
Summary: Clear
Visibility: greater than 7 miles , 10 km
2022/08/10 17:20 EGCN 101720Z 13006KT 080V160 CAVOK 29/09 Q1024
 
EGNJ - Humberside, United Kingdom
Distance from station: SSE 80mi, 129km
Updated: 10/08/2022 18:20
Clear
Clear
 Wind from ESE
Wind: ESE 12 mph , 19 km/h
Temperature: 25°C
Dew Point: 12°C
Humidity: 44%
Barometer: 1024 hPa
Summary: Clear
Visibility: greater than 7 miles , 10 km
2022/08/10 17:20 EGNJ 101720Z 12010KT CAVOK 25/12 Q1024
EGNH - Blackpool Airpor, United Kingdom
Distance from station: SW 90mi, 145km
Updated: 10/08/2022 18:20
Clear
Clear
 Wind from N
Wind: N 13 mph , 20 km/h
Temperature: 22°C
Dew Point: 13°C
Humidity: 57%
Barometer: 1024 hPa
Summary: Clear
Visibility: greater than 7 miles , 10 km
2022/08/10 17:20 EGNH 101720Z 35011KT CAVOK 22/13 Q1024
 
EGXP - Scampton Raf, United Kingdom
Distance from station: SSE 94mi, 151km
Updated: 10/08/2022 17:50
Clear
Clear
 Wind from SE
Wind: SE 8 mph , 13 km/h
Temperature: 27°C
Dew Point: 8°C
Humidity: 30%
Barometer: 1024 hPa
Clouds: Clear
Visibility: 6 miles , 10 km
2022/08/10 16:50 EGXP 101650Z AUTO 13007KT 9999 // NCD 27/08 Q1024
EGCC - Manchester Intl, United Kingdom
Distance from station: SSW 94mi, 152km
Updated: 10/08/2022 18:20
Clear
Clear
 Wind from varies
Wind: varies 2 mph , 4 km/h
Temperature: 28°C
Dew Point: 11°C
Humidity: 35%
Barometer: 1024 hPa
Clouds: Clear
Visibility: 6 miles , 10 km
2022/08/10 17:20 EGCC 101720Z AUTO VRB02KT 9999 NCD 28/11 Q1024